sensor_id;sensor_type;location;lat;lon;timestamp;temperature;humidity
37204;DHT22;23098;48.054;10.636;2023-05-07T00:00:33;11.70;99.90
37204;DHT22;23098;48.054;10.636;2023-05-07T00:02:59;11.70;99.90
37204;DHT22;23098;48.054;10.636;2023-05-07T00:05:25;11.70;99.90
37204;DHT22;23098;48.054;10.636;2023-05-07T00:07:51;11.70;99.90
37204;DHT22;23098;48.054;10.636;2023-05-07T00:10:18;11.60;99.90
37204;DHT22;23098;48.054;10.636;2023-05-07T00:12:44;11.60;99.90
37204;DHT22;23098;48.054;10.636;2023-05-07T00:15:10;11.50;99.90
37204;DHT22;23098;48.054;10.636;2023-05-07T00:17:36;11.50;99.90
37204;DHT22;23098;48.054;10.636;2023-05-07T00:20:02;11.50;99.90
37204;DHT22;23098;48.054;10.636;2023-05-07T00:22:30;11.50;99.90
37204;DHT22;23098;48.054;10.636;2023-05-07T00:24:55;11.50;99.90
37204;DHT22;23098;48.054;10.636;2023-05-07T00:27:22;11.50;99.90
37204;DHT22;23098;48.054;10.636;2023-05-07T00:29:47;11.50;99.90
37204;DHT22;23098;48.054;10.636;2023-05-07T00:32:13;11.50;99.90
37204;DHT22;23098;48.054;10.636;2023-05-07T00:34:38;11.50;99.90
37204;DHT22;23098;48.054;10.636;2023-05-07T00:37:05;11.50;99.90
37204;DHT22;23098;48.054;10.636;2023-05-07T00:39:32;11.50;99.90
37204;DHT22;23098;48.054;10.636;2023-05-07T00:41:58;11.50;99.90
37204;DHT22;23098;48.054;10.636;2023-05-07T00:44:24;11.50;99.90
37204;DHT22;23098;48.054;10.636;2023-05-07T00:46:49;11.50;99.90
37204;DHT22;23098;48.054;10.636;2023-05-07T00:49:15;11.50;99.90
37204;DHT22;23098;48.054;10.636;2023-05-07T00:51:41;11.50;99.90
37204;DHT22;23098;48.054;10.636;2023-05-07T00:54:07;11.50;99.90
37204;DHT22;23098;48.054;10.636;2023-05-07T00:56:34;11.50;99.90
37204;DHT22;23098;48.054;10.636;2023-05-07T00:59:01;11.40;99.90
37204;DHT22;23098;48.054;10.636;2023-05-07T01:01:28;11.40;99.90
37204;DHT22;23098;48.054;10.636;2023-05-07T01:03:53;11.40;99.90
37204;DHT22;23098;48.054;10.636;2023-05-07T01:06:20;11.40;99.90
37204;DHT22;23098;48.054;10.636;2023-05-07T01:08:47;11.40;99.90
37204;DHT22;23098;48.054;10.636;2023-05-07T01:11:16;11.40;99.90
37204;DHT22;23098;48.054;10.636;2023-05-07T01:13:42;11.40;99.90
37204;DHT22;23098;48.054;10.636;2023-05-07T01:16:09;11.30;99.90
37204;DHT22;23098;48.054;10.636;2023-05-07T01:18:35;11.30;99.90
37204;DHT22;23098;48.054;10.636;2023-05-07T01:21:01;11.30;99.90
37204;DHT22;23098;48.054;10.636;2023-05-07T01:23:29;11.30;99.90
37204;DHT22;23098;48.054;10.636;2023-05-07T01:25:55;11.30;99.90
37204;DHT22;23098;48.054;10.636;2023-05-07T01:28:21;11.30;99.90
37204;DHT22;23098;48.054;10.636;2023-05-07T01:30:52;11.30;99.90
37204;DHT22;23098;48.054;10.636;2023-05-07T01:33:20;11.30;99.90
37204;DHT22;23098;48.054;10.636;2023-05-07T01:35:49;11.30;99.90
37204;DHT22;23098;48.054;10.636;2023-05-07T01:38:16;11.20;99.90
37204;DHT22;23098;48.054;10.636;2023-05-07T01:40:41;11.10;99.90
37204;DHT22;23098;48.054;10.636;2023-05-07T01:43:08;11.10;99.90
37204;DHT22;23098;48.054;10.636;2023-05-07T01:45:35;11.10;99.90
37204;DHT22;23098;48.054;10.636;2023-05-07T01:48:02;11.10;99.90
37204;DHT22;23098;48.054;10.636;2023-05-07T01:50:28;11.10;99.90
37204;DHT22;23098;48.054;10.636;2023-05-07T01:52:54;11.10;99.90
37204;DHT22;23098;48.054;10.636;2023-05-07T01:55:20;11.10;99.90
37204;DHT22;23098;48.054;10.636;2023-05-07T01:57:45;11.10;99.90
37204;DHT22;23098;48.054;10.636;2023-05-07T02:00:11;11.10;99.90
37204;DHT22;23098;48.054;10.636;2023-05-07T02:02:37;11.10;99.90
37204;DHT22;23098;48.054;10.636;2023-05-07T02:05:03;11.10;99.90
37204;DHT22;23098;48.054;10.636;2023-05-07T02:07:30;11.10;99.90
37204;DHT22;23098;48.054;10.636;2023-05-07T02:09:55;11.10;99.90
37204;DHT22;23098;48.054;10.636;2023-05-07T02:12:22;11.20;99.90
37204;DHT22;23098;48.054;10.636;2023-05-07T02:14:48;11.10;99.90
37204;DHT22;23098;48.054;10.636;2023-05-07T02:17:13;11.10;99.90
37204;DHT22;23098;48.054;10.636;2023-05-07T02:19:39;11.10;99.90
37204;DHT22;23098;48.054;10.636;2023-05-07T02:22:04;11.20;99.90
37204;DHT22;23098;48.054;10.636;2023-05-07T02:24:30;11.20;99.90
37204;DHT22;23098;48.054;10.636;2023-05-07T02:26:56;11.10;99.90
37204;DHT22;23098;48.054;10.636;2023-05-07T02:29:21;11.00;99.90
37204;DHT22;23098;48.054;10.636;2023-05-07T02:31:47;11.00;99.90
37204;DHT22;23098;48.054;10.636;2023-05-07T02:34:16;10.90;99.90
37204;DHT22;23098;48.054;10.636;2023-05-07T02:36:42;10.90;99.90
37204;DHT22;23098;48.054;10.636;2023-05-07T02:39:07;10.90;99.90
37204;DHT22;23098;48.054;10.636;2023-05-07T02:41:33;11.00;99.90
37204;DHT22;23098;48.054;10.636;2023-05-07T02:43:58;10.90;99.90
37204;DHT22;23098;48.054;10.636;2023-05-07T02:46:24;10.90;99.90
37204;DHT22;23098;48.054;10.636;2023-05-07T02:48:50;11.00;99.90
37204;DHT22;23098;48.054;10.636;2023-05-07T02:51:19;11.00;99.90
37204;DHT22;23098;48.054;10.636;2023-05-07T02:53:45;10.90;99.90
37204;DHT22;23098;48.054;10.636;2023-05-07T02:56:11;10.80;99.90
37204;DHT22;23098;48.054;10.636;2023-05-07T02:58:37;10.80;99.90
37204;DHT22;23098;48.054;10.636;2023-05-07T03:01:05;10.80;99.90
37204;DHT22;23098;48.054;10.636;2023-05-07T03:03:30;10.80;99.90
37204;DHT22;23098;48.054;10.636;2023-05-07T03:05:56;10.80;99.90
37204;DHT22;23098;48.054;10.636;2023-05-07T03:08:22;10.90;99.90
37204;DHT22;23098;48.054;10.636;2023-05-07T03:10:48;10.90;99.90
37204;DHT22;23098;48.054;10.636;2023-05-07T03:13:13;10.80;99.90
37204;DHT22;23098;48.054;10.636;2023-05-07T03:15:39;10.80;99.90
37204;DHT22;23098;48.054;10.636;2023-05-07T03:18:05;10.80;99.90
37204;DHT22;23098;48.054;10.636;2023-05-07T03:20:30;10.80;99.90
37204;DHT22;23098;48.054;10.636;2023-05-07T03:22:56;10.80;99.90
37204;DHT22;23098;48.054;10.636;2023-05-07T03:25:21;10.70;99.90
37204;DHT22;23098;48.054;10.636;2023-05-07T03:27:47;10.70;99.90
37204;DHT22;23098;48.054;10.636;2023-05-07T03:30:13;10.70;99.90
37204;DHT22;23098;48.054;10.636;2023-05-07T03:32:38;10.60;99.90
37204;DHT22;23098;48.054;10.636;2023-05-07T03:35:04;10.60;99.90
37204;DHT22;23098;48.054;10.636;2023-05-07T03:37:30;10.50;99.90
37204;DHT22;23098;48.054;10.636;2023-05-07T03:39:55;10.50;99.90
37204;DHT22;23098;48.054;10.636;2023-05-07T03:42:21;10.40;99.90
37204;DHT22;23098;48.054;10.636;2023-05-07T03:44:46;10.40;99.90
37204;DHT22;23098;48.054;10.636;2023-05-07T03:47:12;10.40;99.90
37204;DHT22;23098;48.054;10.636;2023-05-07T03:49:39;10.40;99.90
37204;DHT22;23098;48.054;10.636;2023-05-07T03:52:05;10.30;99.90
37204;DHT22;23098;48.054;10.636;2023-05-07T03:54:30;10.30;99.90
37204;DHT22;23098;48.054;10.636;2023-05-07T03:56:56;10.30;99.90
37204;DHT22;23098;48.054;10.636;2023-05-07T03:59:22;10.30;99.90
37204;DHT22;23098;48.054;10.636;2023-05-07T04:01:48;10.30;99.90
37204;DHT22;23098;48.054;10.636;2023-05-07T04:04:14;10.30;99.90
37204;DHT22;23098;48.054;10.636;2023-05-07T04:06:40;10.30;99.90
37204;DHT22;23098;48.054;10.636;2023-05-07T04:09:06;10.30;99.90
37204;DHT22;23098;48.054;10.636;2023-05-07T04:11:32;10.40;99.90
37204;DHT22;23098;48.054;10.636;2023-05-07T04:13:57;10.40;99.90
37204;DHT22;23098;48.054;10.636;2023-05-07T04:16:23;10.40;99.90
37204;DHT22;23098;48.054;10.636;2023-05-07T04:18:48;10.40;99.90
37204;DHT22;23098;48.054;10.636;2023-05-07T04:21:15;10.50;99.90
37204;DHT22;23098;48.054;10.636;2023-05-07T04:23:41;10.60;99.90
37204;DHT22;23098;48.054;10.636;2023-05-07T04:26:06;10.90;99.90
37204;DHT22;23098;48.054;10.636;2023-05-07T04:28:32;11.20;99.90
37204;DHT22;23098;48.054;10.636;2023-05-07T04:30:58;11.50;99.90
37204;DHT22;23098;48.054;10.636;2023-05-07T04:33:23;11.50;99.90
37204;DHT22;23098;48.054;10.636;2023-05-07T04:35:49;11.40;99.90
37204;DHT22;23098;48.054;10.636;2023-05-07T04:38:14;11.60;99.90
37204;DHT22;23098;48.054;10.636;2023-05-07T04:40:40;12.00;99.90
37204;DHT22;23098;48.054;10.636;2023-05-07T04:43:06;12.20;99.90
37204;DHT22;23098;48.054;10.636;2023-05-07T04:45:34;12.60;99.90
37204;DHT22;23098;48.054;10.636;2023-05-07T04:48:00;12.60;99.90
37204;DHT22;23098;48.054;10.636;2023-05-07T04:50:26;13.10;99.90
37204;DHT22;23098;48.054;10.636;2023-05-07T04:52:51;14.40;99.90
37204;DHT22;23098;48.054;10.636;2023-05-07T04:55:17;14.40;99.90
37204;DHT22;23098;48.054;10.636;2023-05-07T04:57:42;15.30;99.90
37204;DHT22;23098;48.054;10.636;2023-05-07T05:00:08;16.00;99.90
37204;DHT22;23098;48.054;10.636;2023-05-07T05:02:35;16.80;99.90
37204;DHT22;23098;48.054;10.636;2023-05-07T05:05:01;17.10;99.90
37204;DHT22;23098;48.054;10.636;2023-05-07T05:07:27;17.20;99.90
37204;DHT22;23098;48.054;10.636;2023-05-07T05:09:55;17.90;99.90
37204;DHT22;23098;48.054;10.636;2023-05-07T05:12:20;17.80;99.90
37204;DHT22;23098;48.054;10.636;2023-05-07T05:14:46;18.50;99.90
37204;DHT22;23098;48.054;10.636;2023-05-07T05:17:12;18.70;99.40
37204;DHT22;23098;48.054;10.636;2023-05-07T05:19:37;19.10;98.90
37204;DHT22;23098;48.054;10.636;2023-05-07T05:22:03;18.40;99.10
37204;DHT22;23098;48.054;10.636;2023-05-07T05:24:30;18.80;99.00
37204;DHT22;23098;48.054;10.636;2023-05-07T05:26:55;18.90;99.30
37204;DHT22;23098;48.054;10.636;2023-05-07T05:29:21;19.80;98.10
37204;DHT22;23098;48.054;10.636;2023-05-07T05:31:46;20.60;97.10
37204;DHT22;23098;48.054;10.636;2023-05-07T05:34:12;21.20;95.80
37204;DHT22;23098;48.054;10.636;2023-05-07T05:36:38;20.70;95.90
37204;DHT22;23098;48.054;10.636;2023-05-07T05:39:03;19.80;97.00
37204;DHT22;23098;48.054;10.636;2023-05-07T05:41:29;20.40;97.20
37204;DHT22;23098;48.054;10.636;2023-05-07T05:43:55;20.40;97.10
37204;DHT22;23098;48.054;10.636;2023-05-07T05:46:21;20.70;96.60
37204;DHT22;23098;48.054;10.636;2023-05-07T05:48:46;21.00;96.60
37204;DHT22;23098;48.054;10.636;2023-05-07T05:51:12;20.90;96.80
37204;DHT22;23098;48.054;10.636;2023-05-07T05:53:37;20.90;96.20
37204;DHT22;23098;48.054;10.636;2023-05-07T05:56:03;20.10;96.90
37204;DHT22;23098;48.054;10.636;2023-05-07T05:58:29;20.10;98.10
37204;DHT22;23098;48.054;10.636;2023-05-07T06:00:54;20.30;97.90
37204;DHT22;23098;48.054;10.636;2023-05-07T06:03:21;20.50;97.20
37204;DHT22;23098;48.054;10.636;2023-05-07T06:05:47;20.30;97.30
37204;DHT22;23098;48.054;10.636;2023-05-07T06:08:13;20.90;97.50
37204;DHT22;23098;48.054;10.636;2023-05-07T06:10:38;21.40;96.40
37204;DHT22;23098;48.054;10.636;2023-05-07T06:13:04;21.30;96.70
37204;DHT22;23098;48.054;10.636;2023-05-07T06:15:30;20.70;96.40
37204;DHT22;23098;48.054;10.636;2023-05-07T06:17:55;19.70;98.00
37204;DHT22;23098;48.054;10.636;2023-05-07T06:20:23;19.30;99.20
37204;DHT22;23098;48.054;10.636;2023-05-07T06:22:48;19.30;99.30
37204;DHT22;23098;48.054;10.636;2023-05-07T06:25:14;19.50;98.90
37204;DHT22;23098;48.054;10.636;2023-05-07T06:27:40;20.00;98.80
37204;DHT22;23098;48.054;10.636;2023-05-07T06:30:06;20.20;98.20
37204;DHT22;23098;48.054;10.636;2023-05-07T06:32:32;20.70;98.00
37204;DHT22;23098;48.054;10.636;2023-05-07T06:34:58;21.70;97.70
37204;DHT22;23098;48.054;10.636;2023-05-07T06:37:23;22.20;97.10
37204;DHT22;23098;48.054;10.636;2023-05-07T06:39:49;22.70;96.80
37204;DHT22;23098;48.054;10.636;2023-05-07T06:42:14;22.70;96.20
37204;DHT22;23098;48.054;10.636;2023-05-07T06:44:40;22.90;95.70
37204;DHT22;23098;48.054;10.636;2023-05-07T06:47:05;23.00;96.10
37204;DHT22;23098;48.054;10.636;2023-05-07T06:49:31;21.80;95.20
37204;DHT22;23098;48.054;10.636;2023-05-07T06:51:56;21.20;95.90
37204;DHT22;23098;48.054;10.636;2023-05-07T06:54:22;21.50;96.80
37204;DHT22;23098;48.054;10.636;2023-05-07T06:56:48;21.90;95.50
37204;DHT22;23098;48.054;10.636;2023-05-07T06:59:14;21.60;96.60
37204;DHT22;23098;48.054;10.636;2023-05-07T07:01:39;20.00;97.20
37204;DHT22;23098;48.054;10.636;2023-05-07T07:04:05;19.10;98.70
37204;DHT22;23098;48.054;10.636;2023-05-07T07:06:31;18.30;99.90
37204;DHT22;23098;48.054;10.636;2023-05-07T07:08:57;18.10;99.90
37204;DHT22;23098;48.054;10.636;2023-05-07T07:11:23;17.50;99.90
37204;DHT22;23098;48.054;10.636;2023-05-07T07:13:48;17.30;99.90
37204;DHT22;23098;48.054;10.636;2023-05-07T07:16:14;17.70;99.90
37204;DHT22;23098;48.054;10.636;2023-05-07T07:18:40;17.40;99.90
37204;DHT22;23098;48.054;10.636;2023-05-07T07:21:05;17.60;99.90
37204;DHT22;23098;48.054;10.636;2023-05-07T07:23:31;17.30;99.90
37204;DHT22;23098;48.054;10.636;2023-05-07T07:25:56;17.60;99.90
37204;DHT22;23098;48.054;10.636;2023-05-07T07:28:22;17.90;99.90
37204;DHT22;23098;48.054;10.636;2023-05-07T07:30:47;17.70;99.90
37204;DHT22;23098;48.054;10.636;2023-05-07T07:33:13;17.80;99.90
37204;DHT22;23098;48.054;10.636;2023-05-07T07:35:39;17.70;99.90
37204;DHT22;23098;48.054;10.636;2023-05-07T07:38:05;17.70;99.90
37204;DHT22;23098;48.054;10.636;2023-05-07T07:40:30;17.90;99.90
37204;DHT22;23098;48.054;10.636;2023-05-07T07:42:56;17.80;99.90
37204;DHT22;23098;48.054;10.636;2023-05-07T07:45:22;18.20;99.90
37204;DHT22;23098;48.054;10.636;2023-05-07T07:47:48;18.50;99.90
37204;DHT22;23098;48.054;10.636;2023-05-07T07:50:13;18.50;99.90
37204;DHT22;23098;48.054;10.636;2023-05-07T07:52:39;18.70;99.90
37204;DHT22;23098;48.054;10.636;2023-05-07T07:55:05;18.70;99.90
37204;DHT22;23098;48.054;10.636;2023-05-07T07:57:30;18.50;99.90
37204;DHT22;23098;48.054;10.636;2023-05-07T07:59:56;18.40;99.90
37204;DHT22;23098;48.054;10.636;2023-05-07T08:02:22;18.60;99.90
37204;DHT22;23098;48.054;10.636;2023-05-07T08:04:47;18.60;99.90
37204;DHT22;23098;48.054;10.636;2023-05-07T08:07:13;18.60;99.90
37204;DHT22;23098;48.054;10.636;2023-05-07T08:09:39;18.60;99.90
37204;DHT22;23098;48.054;10.636;2023-05-07T08:12:05;18.80;99.90
37204;DHT22;23098;48.054;10.636;2023-05-07T08:14:31;18.60;99.90
37204;DHT22;23098;48.054;10.636;2023-05-07T08:16:57;18.60;99.90
37204;DHT22;23098;48.054;10.636;2023-05-07T08:19:22;18.70;99.90
37204;DHT22;23098;48.054;10.636;2023-05-07T08:21:48;18.60;99.90
37204;DHT22;23098;48.054;10.636;2023-05-07T08:24:14;18.70;99.90
37204;DHT22;23098;48.054;10.636;2023-05-07T08:26:40;18.80;99.90
37204;DHT22;23098;48.054;10.636;2023-05-07T08:29:11;19.30;99.90
37204;DHT22;23098;48.054;10.636;2023-05-07T08:31:36;19.60;99.90
37204;DHT22;23098;48.054;10.636;2023-05-07T08:34:04;19.50;99.90
37204;DHT22;23098;48.054;10.636;2023-05-07T08:36:30;19.50;99.80
37204;DHT22;23098;48.054;10.636;2023-05-07T08:38:56;19.80;99.90
37204;DHT22;23098;48.054;10.636;2023-05-07T08:41:21;19.90;99.00
37204;DHT22;23098;48.054;10.636;2023-05-07T08:43:48;20.50;99.80
37204;DHT22;23098;48.054;10.636;2023-05-07T08:46:20;19.90;98.40
37204;DHT22;23098;48.054;10.636;2023-05-07T08:48:50;20.30;99.30
37204;DHT22;23098;48.054;10.636;2023-05-07T08:51:18;20.40;98.80
37204;DHT22;23098;48.054;10.636;2023-05-07T08:53:44;20.20;98.20
37204;DHT22;23098;48.054;10.636;2023-05-07T08:56:11;20.10;97.30
37204;DHT22;23098;48.054;10.636;2023-05-07T08:58:37;20.50;98.60
37204;DHT22;23098;48.054;10.636;2023-05-07T09:01:07;20.70;97.10
37204;DHT22;23098;48.054;10.636;2023-05-07T09:03:33;20.50;96.20
37204;DHT22;23098;48.054;10.636;2023-05-07T09:06:00;20.60;97.70
37204;DHT22;23098;48.054;10.636;2023-05-07T09:08:26;20.70;96.40
37204;DHT22;23098;48.054;10.636;2023-05-07T09:10:53;20.90;98.10
37204;DHT22;23098;48.054;10.636;2023-05-07T09:13:19;20.90;97.00
37204;DHT22;23098;48.054;10.636;2023-05-07T09:15:44;20.70;97.30
37204;DHT22;23098;48.054;10.636;2023-05-07T09:18:10;21.00;97.60
37204;DHT22;23098;48.054;10.636;2023-05-07T09:20:40;21.50;97.00
37204;DHT22;23098;48.054;10.636;2023-05-07T09:23:06;21.00;96.10
37204;DHT22;23098;48.054;10.636;2023-05-07T09:25:33;21.10;96.60
37204;DHT22;23098;48.054;10.636;2023-05-07T09:28:00;21.00;95.20
37204;DHT22;23098;48.054;10.636;2023-05-07T09:30:30;21.20;95.70
37204;DHT22;23098;48.054;10.636;2023-05-07T09:32:58;21.50;96.30
37204;DHT22;23098;48.054;10.636;2023-05-07T09:35:24;21.30;96.20
37204;DHT22;23098;48.054;10.636;2023-05-07T09:37:55;21.50;96.70
37204;DHT22;23098;48.054;10.636;2023-05-07T09:40:30;21.40;95.40
37204;DHT22;23098;48.054;10.636;2023-05-07T09:42:56;21.70;95.90
37204;DHT22;23098;48.054;10.636;2023-05-07T09:45:24;21.40;96.50
37204;DHT22;23098;48.054;10.636;2023-05-07T09:47:55;21.60;95.80
37204;DHT22;23098;48.054;10.636;2023-05-07T09:50:27;21.20;95.60
37204;DHT22;23098;48.054;10.636;2023-05-07T09:52:55;21.00;97.10
37204;DHT22;23098;48.054;10.636;2023-05-07T09:55:22;21.50;96.50
37204;DHT22;23098;48.054;10.636;2023-05-07T09:57:53;21.80;95.80
37204;DHT22;23098;48.054;10.636;2023-05-07T10:00:27;21.80;94.60
37204;DHT22;23098;48.054;10.636;2023-05-07T10:02:57;21.70;95.10
37204;DHT22;23098;48.054;10.636;2023-05-07T10:05:27;21.60;94.40
37204;DHT22;23098;48.054;10.636;2023-05-07T10:07:53;21.80;94.80
37204;DHT22;23098;48.054;10.636;2023-05-07T10:10:19;21.10;94.20
37204;DHT22;23098;48.054;10.636;2023-05-07T10:12:45;21.50;94.90
37204;DHT22;23098;48.054;10.636;2023-05-07T10:15:12;21.30;95.10
37204;DHT22;23098;48.054;10.636;2023-05-07T10:17:40;21.70;94.80
37204;DHT22;23098;48.054;10.636;2023-05-07T10:20:07;21.90;95.90
37204;DHT22;23098;48.054;10.636;2023-05-07T10:22:52;21.70;95.40
37204;DHT22;23098;48.054;10.636;2023-05-07T10:25:23;21.40;95.10
37204;DHT22;23098;48.054;10.636;2023-05-07T10:27:51;21.80;95.40
37204;DHT22;23098;48.054;10.636;2023-05-07T10:30:26;22.50;96.00
37204;DHT22;23098;48.054;10.636;2023-05-07T10:32:56;22.40;94.60
37204;DHT22;23098;48.054;10.636;2023-05-07T10:35:32;21.80;94.60
37204;DHT22;23098;48.054;10.636;2023-05-07T10:38:01;21.80;95.50
37204;DHT22;23098;48.054;10.636;2023-05-07T10:40:27;22.50;94.90
37204;DHT22;23098;48.054;10.636;2023-05-07T10:42:57;22.60;94.40
37204;DHT22;23098;48.054;10.636;2023-05-07T10:45:28;22.60;95.10
37204;DHT22;23098;48.054;10.636;2023-05-07T10:50:42;22.10;95.20
37204;DHT22;23098;48.054;10.636;2023-05-07T10:55:51;21.70;95.40
37204;DHT22;23098;48.054;10.636;2023-05-07T10:58:26;21.90;96.30
37204;DHT22;23098;48.054;10.636;2023-05-07T11:00:59;21.80;95.90
37204;DHT22;23098;48.054;10.636;2023-05-07T11:03:25;21.60;95.30
37204;DHT22;23098;48.054;10.636;2023-05-07T11:06:11;21.90;95.70
37204;DHT22;23098;48.054;10.636;2023-05-07T11:08:56;22.50;95.90
37204;DHT22;23098;48.054;10.636;2023-05-07T11:14:09;21.60;95.00
37204;DHT22;23098;48.054;10.636;2023-05-07T11:16:35;22.00;96.00
37204;DHT22;23098;48.054;10.636;2023-05-07T11:19:02;22.50;95.70
37204;DHT22;23098;48.054;10.636;2023-05-07T11:21:38;21.90;95.60
37204;DHT22;23098;48.054;10.636;2023-05-07T11:24:08;21.70;96.50
37204;DHT22;23098;48.054;10.636;2023-05-07T11:26:49;21.70;95.70
37204;DHT22;23098;48.054;10.636;2023-05-07T11:29:17;22.00;95.30
37204;DHT22;23098;48.054;10.636;2023-05-07T11:31:43;21.90;95.60
37204;DHT22;23098;48.054;10.636;2023-05-07T11:34:09;21.80;95.80
37204;DHT22;23098;48.054;10.636;2023-05-07T11:36:36;22.10;95.40
37204;DHT22;23098;48.054;10.636;2023-05-07T11:39:06;22.00;94.40
37204;DHT22;23098;48.054;10.636;2023-05-07T11:41:47;21.90;94.80
37204;DHT22;23098;48.054;10.636;2023-05-07T11:44:13;21.90;94.60
37204;DHT22;23098;48.054;10.636;2023-05-07T11:46:43;21.90;95.40
37204;DHT22;23098;48.054;10.636;2023-05-07T11:49:09;22.20;95.30
37204;DHT22;23098;48.054;10.636;2023-05-07T11:51:37;22.40;94.20
37204;DHT22;23098;48.054;10.636;2023-05-07T11:54:04;22.40;93.40
37204;DHT22;23098;48.054;10.636;2023-05-07T11:56:34;22.30;93.70
37204;DHT22;23098;48.054;10.636;2023-05-07T11:59:00;22.70;94.00
37204;DHT22;23098;48.054;10.636;2023-05-07T12:01:26;22.70;94.10
37204;DHT22;23098;48.054;10.636;2023-05-07T12:03:51;22.60;94.30
37204;DHT22;23098;48.054;10.636;2023-05-07T12:06:17;22.30;93.10
37204;DHT22;23098;48.054;10.636;2023-05-07T12:08:45;22.40;93.50
37204;DHT22;23098;48.054;10.636;2023-05-07T12:11:21;21.90;93.90
37204;DHT22;23098;48.054;10.636;2023-05-07T12:13:47;22.20;93.70
37204;DHT22;23098;48.054;10.636;2023-05-07T12:16:14;22.10;93.30
37204;DHT22;23098;48.054;10.636;2023-05-07T12:18:39;22.10;94.50
37204;DHT22;23098;48.054;10.636;2023-05-07T12:21:06;21.40;93.60
37204;DHT22;23098;48.054;10.636;2023-05-07T12:23:32;21.20;93.80
37204;DHT22;23098;48.054;10.636;2023-05-07T12:25:59;21.30;94.20
37204;DHT22;23098;48.054;10.636;2023-05-07T12:28:25;21.60;94.90
37204;DHT22;23098;48.054;10.636;2023-05-07T12:30:51;21.60;94.20
37204;DHT22;23098;48.054;10.636;2023-05-07T12:33:18;21.30;94.20
37204;DHT22;23098;48.054;10.636;2023-05-07T12:35:47;21.30;94.50
37204;DHT22;23098;48.054;10.636;2023-05-07T12:38:14;21.20;94.50
37204;DHT22;23098;48.054;10.636;2023-05-07T12:40:53;20.90;94.40
37204;DHT22;23098;48.054;10.636;2023-05-07T12:45:49;20.90;94.90
37204;DHT22;23098;48.054;10.636;2023-05-07T12:48:14;20.70;95.30
37204;DHT22;23098;48.054;10.636;2023-05-07T12:50:40;20.60;94.20
37204;DHT22;23098;48.054;10.636;2023-05-07T12:53:07;20.60;94.80
37204;DHT22;23098;48.054;10.636;2023-05-07T12:55:55;20.70;95.30
37204;DHT22;23098;48.054;10.636;2023-05-07T12:58:30;20.50;95.10
37204;DHT22;23098;48.054;10.636;2023-05-07T13:00:59;20.50;95.50
37204;DHT22;23098;48.054;10.636;2023-05-07T13:03:48;20.50;95.10
37204;DHT22;23098;48.054;10.636;2023-05-07T13:06:14;20.70;94.80
37204;DHT22;23098;48.054;10.636;2023-05-07T13:08:41;20.60;94.60
37204;DHT22;23098;48.054;10.636;2023-05-07T13:11:11;20.60;94.50
37204;DHT22;23098;48.054;10.636;2023-05-07T13:13:39;20.70;95.30
37204;DHT22;23098;48.054;10.636;2023-05-07T13:16:08;20.60;95.50
37204;DHT22;23098;48.054;10.636;2023-05-07T13:18:43;20.50;95.30
37204;DHT22;23098;48.054;10.636;2023-05-07T13:21:33;20.60;95.00
37204;DHT22;23098;48.054;10.636;2023-05-07T13:23:59;20.90;95.50
37204;DHT22;23098;48.054;10.636;2023-05-07T13:26:26;20.80;95.00
37204;DHT22;23098;48.054;10.636;2023-05-07T13:28:55;21.10;94.20
37204;DHT22;23098;48.054;10.636;2023-05-07T13:31:20;21.70;94.10
37204;DHT22;23098;48.054;10.636;2023-05-07T13:33:46;21.50;93.80
37204;DHT22;23098;48.054;10.636;2023-05-07T13:36:12;21.60;93.10
37204;DHT22;23098;48.054;10.636;2023-05-07T13:38:38;21.80;93.00
37204;DHT22;23098;48.054;10.636;2023-05-07T13:41:04;21.80;93.30
37204;DHT22;23098;48.054;10.636;2023-05-07T13:43:29;21.60;93.30
37204;DHT22;23098;48.054;10.636;2023-05-07T13:45:55;21.60;93.60
37204;DHT22;23098;48.054;10.636;2023-05-07T13:48:20;21.10;93.50
37204;DHT22;23098;48.054;10.636;2023-05-07T13:50:46;20.90;93.30
37204;DHT22;23098;48.054;10.636;2023-05-07T13:53:11;20.90;93.50
37204;DHT22;23098;48.054;10.636;2023-05-07T13:55:38;20.80;93.50
37204;DHT22;23098;48.054;10.636;2023-05-07T13:58:04;20.90;93.70
37204;DHT22;23098;48.054;10.636;2023-05-07T14:00:29;21.00;94.40
37204;DHT22;23098;48.054;10.636;2023-05-07T14:02:56;21.10;93.90
37204;DHT22;23098;48.054;10.636;2023-05-07T14:05:22;20.90;93.40
37204;DHT22;23098;48.054;10.636;2023-05-07T14:07:53;20.80;93.90
37204;DHT22;23098;48.054;10.636;2023-05-07T14:10:19;20.90;93.70
37204;DHT22;23098;48.054;10.636;2023-05-07T14:12:45;20.90;93.90
37204;DHT22;23098;48.054;10.636;2023-05-07T14:15:11;20.80;93.50
37204;DHT22;23098;48.054;10.636;2023-05-07T14:17:37;20.80;94.10
37204;DHT22;23098;48.054;10.636;2023-05-07T14:20:03;20.80;94.10
37204;DHT22;23098;48.054;10.636;2023-05-07T14:22:28;21.00;93.80
37204;DHT22;23098;48.054;10.636;2023-05-07T14:24:54;20.80;93.90
37204;DHT22;23098;48.054;10.636;2023-05-07T14:27:20;20.80;94.60
37204;DHT22;23098;48.054;10.636;2023-05-07T14:29:45;21.00;94.70
37204;DHT22;23098;48.054;10.636;2023-05-07T14:32:18;21.00;94.00
37204;DHT22;23098;48.054;10.636;2023-05-07T14:34:44;20.70;93.50
37204;DHT22;23098;48.054;10.636;2023-05-07T14:37:10;20.90;93.80
37204;DHT22;23098;48.054;10.636;2023-05-07T14:39:36;21.50;93.90
37204;DHT22;23098;48.054;10.636;2023-05-07T14:42:01;21.60;94.10
37204;DHT22;23098;48.054;10.636;2023-05-07T14:44:27;21.10;93.20
37204;DHT22;23098;48.054;10.636;2023-05-07T14:46:53;21.50;93.90
37204;DHT22;23098;48.054;10.636;2023-05-07T14:49:18;21.60;93.20
37204;DHT22;23098;48.054;10.636;2023-05-07T14:51:44;21.60;93.70
37204;DHT22;23098;48.054;10.636;2023-05-07T14:54:11;21.50;93.70
37204;DHT22;23098;48.054;10.636;2023-05-07T14:56:36;21.60;93.80
37204;DHT22;23098;48.054;10.636;2023-05-07T14:59:02;21.20;93.10
37204;DHT22;23098;48.054;10.636;2023-05-07T15:01:28;21.50;94.30
37204;DHT22;23098;48.054;10.636;2023-05-07T15:03:54;21.50;93.00
37204;DHT22;23098;48.054;10.636;2023-05-07T15:06:21;21.30;93.60
37204;DHT22;23098;48.054;10.636;2023-05-07T15:08:47;21.20;93.30
37204;DHT22;23098;48.054;10.636;2023-05-07T15:11:13;21.60;94.00
37204;DHT22;23098;48.054;10.636;2023-05-07T15:13:39;21.40;93.20
37204;DHT22;23098;48.054;10.636;2023-05-07T15:16:05;20.80;92.80
37204;DHT22;23098;48.054;10.636;2023-05-07T15:18:30;20.70;93.50
37204;DHT22;23098;48.054;10.636;2023-05-07T15:20:56;20.80;93.80
37204;DHT22;23098;48.054;10.636;2023-05-07T15:23:23;20.70;93.60